createdAt,value
2022-10-16T00:01:41.308Z,10.07
2022-10-16T00:04:15.461Z,9.13
2022-10-16T00:06:49.550Z,15.77
2022-10-16T00:09:25.136Z,9.43
2022-10-16T00:11:59.077Z,9.65
2022-10-16T00:14:32.981Z,11.02
2022-10-16T00:17:06.964Z,11.20
2022-10-16T00:19:40.865Z,11.98
2022-10-16T00:22:33.585Z,8.60
2022-10-16T00:25:09.421Z,8.90
2022-10-16T00:27:43.365Z,9.85
2022-10-16T00:30:17.352Z,10.27
2022-10-16T00:32:51.254Z,11.15
2022-10-16T00:35:25.324Z,10.38
2022-10-16T00:37:59.237Z,10.60
2022-10-16T00:40:34.546Z,11.93
2022-10-16T00:43:15.047Z,13.98
2022-10-16T00:45:49.067Z,8.35
2022-10-16T00:48:23.473Z,8.98
2022-10-16T00:50:58.326Z,10.07
2022-10-16T00:53:32.929Z,8.85
2022-10-16T00:56:09.129Z,8.32
2022-10-16T00:58:43.318Z,14.85
2022-10-16T01:01:17.287Z,8.73
2022-10-16T01:03:51.414Z,8.52
2022-10-16T01:06:29.707Z,14.52
2022-10-16T01:09:16.364Z,9.07
2022-10-16T01:12:04.391Z,11.57
2022-10-16T01:14:47.990Z,9.35
2022-10-16T01:17:25.554Z,8.23
2022-10-16T01:20:14.750Z,11.52
2022-10-16T01:23:04.097Z,11.50
2022-10-16T01:26:05.670Z,12.10
2022-10-16T01:28:45.057Z,8.57
2022-10-16T01:31:22.614Z,9.98
2022-10-16T01:34:03.024Z,8.82
2022-10-16T01:36:42.662Z,9.80
2022-10-16T01:39:18.637Z,12.32
2022-10-16T01:42:09.066Z,9.88
2022-10-16T01:44:46.167Z,11.23
2022-10-16T01:47:22.846Z,9.50
2022-10-16T01:50:00.228Z,8.40
2022-10-16T01:52:37.554Z,10.05
2022-10-16T01:55:14.106Z,8.77
2022-10-16T01:57:52.249Z,8.38
2022-10-16T02:00:28.900Z,8.70
2022-10-16T02:03:04.957Z,8.73
2022-10-16T02:05:45.080Z,9.80
2022-10-16T02:08:19.079Z,9.45
2022-10-16T02:10:53.157Z,9.43
2022-10-16T02:13:31.618Z,9.75
2022-10-16T02:16:07.716Z,10.05
2022-10-16T02:18:42.113Z,10.55
2022-10-16T02:21:21.564Z,12.20
2022-10-16T02:24:04.179Z,8.98
2022-10-16T02:26:43.477Z,10.07
2022-10-16T02:29:19.975Z,7.85
2022-10-16T02:32:00.208Z,8.57
2022-10-16T02:34:36.021Z,9.80
2022-10-16T02:37:11.605Z,7.82
2022-10-16T02:39:45.487Z,7.93
2022-10-16T02:42:21.164Z,9.35
2022-10-16T02:44:55.031Z,8.80
2022-10-16T02:47:30.283Z,8.52
2022-10-16T02:50:04.289Z,9.07
2022-10-16T02:52:38.472Z,11.25
2022-10-16T02:55:12.318Z,14.20
2022-10-16T02:57:46.278Z,14.20
2022-10-16T03:00:20.518Z,11.88
2022-10-16T03:02:56.398Z,7.35
2022-10-16T03:05:30.404Z,14.55
2022-10-16T03:08:04.296Z,7.97
2022-10-16T03:10:38.209Z,9.50
2022-10-16T03:13:12.071Z,7.13
2022-10-16T03:18:21.398Z,11.05
2022-10-16T03:20:55.266Z,8.60
2022-10-16T03:26:08.068Z,8.43
2022-10-16T03:28:41.980Z,7.68
2022-10-16T03:31:15.920Z,10.45
2022-10-16T03:33:51.227Z,10.40
2022-10-16T03:36:25.251Z,9.43
2022-10-16T03:38:59.302Z,8.13
2022-10-16T03:41:33.187Z,8.15
2022-10-16T03:44:07.456Z,8.00
2022-10-16T03:46:41.656Z,10.68
2022-10-16T03:49:16.931Z,7.07
2022-10-16T03:51:50.774Z,7.97
2022-10-16T03:54:24.749Z,10.48
2022-10-16T03:56:58.627Z,8.38
2022-10-16T03:59:32.562Z,11.63
2022-10-16T04:02:06.454Z,7.90
2022-10-16T04:04:41.898Z,14.85
2022-10-16T04:07:15.774Z,9.13
2022-10-16T04:09:49.654Z,8.70
2022-10-16T04:12:23.670Z,8.18
2022-10-16T04:14:57.753Z,8.05
2022-10-16T04:17:31.612Z,8.75
2022-10-16T04:20:08.247Z,11.20
2022-10-16T04:22:42.195Z,8.93
2022-10-16T04:25:16.194Z,12.07
2022-10-16T04:27:50.347Z,10.95
2022-10-16T04:30:24.665Z,10.20
2022-10-16T04:32:58.669Z,10.68
2022-10-16T04:35:34.041Z,13.02
2022-10-16T04:38:08.041Z,9.40
2022-10-16T04:40:43.713Z,7.88
2022-10-16T04:43:17.648Z,12.73
2022-10-16T04:45:52.860Z,10.10
2022-10-16T04:48:26.878Z,8.50
2022-10-16T04:51:02.305Z,13.27
2022-10-16T04:53:36.538Z,10.35
2022-10-16T04:56:10.413Z,12.23
2022-10-16T04:58:44.372Z,8.88
2022-10-16T05:01:18.294Z,7.93
2022-10-16T05:03:52.182Z,10.32
2022-10-16T05:06:27.566Z,7.85
2022-10-16T05:09:01.846Z,7.93
2022-10-16T05:11:36.198Z,8.48
2022-10-16T05:16:45.002Z,10.77
2022-10-16T05:19:27.653Z,8.45
2022-10-16T05:22:03.706Z,7.57
2022-10-16T05:24:37.569Z,9.63
2022-10-16T05:27:12.028Z,8.10
2022-10-16T05:29:46.360Z,7.65
2022-10-16T05:32:20.969Z,12.02
2022-10-16T05:34:54.817Z,7.72
2022-10-16T05:37:30.304Z,10.80
2022-10-16T05:40:06.084Z,7.65
2022-10-16T05:42:40.012Z,8.65
2022-10-16T05:45:14.418Z,11.23
2022-10-16T05:47:48.335Z,9.90
2022-10-16T05:50:22.391Z,7.47
2022-10-16T05:52:59.043Z,9.90
2022-10-16T05:55:32.976Z,19.30
2022-10-16T05:58:06.944Z,10.05
2022-10-16T06:00:40.813Z,11.10
2022-10-16T06:03:14.735Z,13.48
2022-10-16T06:05:48.619Z,8.85
2022-10-16T06:08:25.191Z,16.65
2022-10-16T06:11:06.613Z,15.20
2022-10-16T06:13:42.901Z,16.15
2022-10-16T06:16:16.886Z,12.30
2022-10-16T06:18:53.632Z,13.38
2022-10-16T06:21:28.640Z,16.08
2022-10-16T06:24:03.992Z,20.92
2022-10-16T06:26:38.017Z,29.67
2022-10-16T06:29:11.999Z,20.08
2022-10-16T06:31:45.984Z,24.98
2022-10-16T06:34:20.077Z,27.30
2022-10-16T06:36:53.973Z,17.77
2022-10-16T06:39:29.355Z,21.13
2022-10-16T06:42:03.230Z,22.88
2022-10-16T06:44:43.261Z,23.45
2022-10-16T06:47:17.170Z,20.48
2022-10-16T06:49:53.573Z,24.50
2022-10-16T06:52:30.727Z,23.77
2022-10-16T06:55:06.889Z,16.17
2022-10-16T06:57:40.779Z,19.77
2022-10-16T07:00:15.216Z,19.13
2022-10-16T07:02:49.125Z,16.33
2022-10-16T07:05:23.069Z,13.90
2022-10-16T07:07:57.091Z,18.77
2022-10-16T07:10:32.410Z,16.35
2022-10-16T07:13:06.624Z,15.52
2022-10-16T07:15:40.763Z,18.48
2022-10-16T07:18:14.868Z,25.88
2022-10-16T07:20:48.856Z,20.85
2022-10-16T07:23:22.885Z,15.60
2022-10-16T07:25:58.458Z,19.73
2022-10-16T07:28:33.378Z,14.70
2022-10-16T07:31:09.000Z,15.60
2022-10-16T07:33:45.612Z,17.63
2022-10-16T07:36:21.754Z,16.15
2022-10-16T07:38:58.825Z,15.68
2022-10-16T07:41:37.936Z,18.77
2022-10-16T07:44:12.059Z,16.95
2022-10-16T07:46:46.110Z,14.40
2022-10-16T07:49:20.027Z,18.92
2022-10-16T07:51:53.966Z,15.00
2022-10-16T07:54:27.993Z,13.55
2022-10-16T07:57:03.412Z,15.90
2022-10-16T07:59:37.302Z,13.60
2022-10-16T08:02:11.166Z,16.05
2022-10-16T08:04:45.020Z,15.55
2022-10-16T08:07:18.890Z,20.00
2022-10-16T08:09:53.792Z,13.15
2022-10-16T08:12:29.130Z,14.30
2022-10-16T08:15:03.017Z,19.58
2022-10-16T08:17:36.946Z,18.73
2022-10-16T08:20:12.534Z,17.55
2022-10-16T08:22:46.496Z,15.75
2022-10-16T08:25:20.736Z,17.70
2022-10-16T08:27:56.106Z,19.85
2022-10-16T08:30:30.198Z,24.42
2022-10-16T08:33:04.692Z,21.63
2022-10-16T08:35:38.681Z,19.65
2022-10-16T08:38:17.947Z,21.35
2022-10-16T08:40:53.827Z,20.70
2022-10-16T08:43:46.584Z,23.30
2022-10-16T08:46:40.430Z,19.15
2022-10-16T08:49:15.789Z,15.57
2022-10-16T08:51:52.039Z,16.05
2022-10-16T08:54:32.371Z,15.30
2022-10-16T08:57:13.620Z,16.42
2022-10-16T08:59:50.229Z,24.88
2022-10-16T09:02:31.453Z,18.13
2022-10-16T09:05:36.245Z,18.13
2022-10-16T09:10:57.355Z,14.20
2022-10-16T09:13:36.018Z,26.08
2022-10-16T09:16:19.228Z,24.95
2022-10-16T09:19:02.256Z,30.98
2022-10-16T09:21:39.697Z,39.10
2022-10-16T09:24:17.718Z,28.45
2022-10-16T09:26:51.871Z,29.23
2022-10-16T09:29:26.355Z,29.02
2022-10-16T09:32:13.756Z,27.85
2022-10-16T09:34:52.055Z,27.08
2022-10-16T09:37:27.474Z,27.88
2022-10-16T09:40:05.245Z,30.77
2022-10-16T09:42:41.750Z,30.63
2022-10-16T09:45:25.139Z,21.13
2022-10-16T09:48:01.410Z,25.65
2022-10-16T09:50:35.445Z,22.73
2022-10-16T09:53:14.415Z,30.27
2022-10-16T09:55:52.244Z,31.70
2022-10-16T09:58:26.531Z,19.90
2022-10-16T10:01:00.817Z,26.58
2022-10-16T10:03:41.887Z,29.70
2022-10-16T10:06:23.674Z,26.90
2022-10-16T10:09:04.190Z,18.10
2022-10-16T10:11:57.380Z,19.95
2022-10-16T10:14:37.338Z,18.38
2022-10-16T10:17:17.829Z,23.45
2022-10-16T10:19:56.160Z,26.17
2022-10-16T10:22:34.893Z,17.17
2022-10-16T10:25:47.768Z,16.35
2022-10-16T10:28:46.314Z,24.15
2022-10-16T10:31:26.970Z,19.67
2022-10-16T10:34:20.672Z,19.75
2022-10-16T10:37:04.744Z,16.88
2022-10-16T10:39:45.994Z,20.20
2022-10-16T10:42:28.783Z,18.55
2022-10-16T10:45:18.676Z,19.75
2022-10-16T10:48:13.268Z,16.08
2022-10-16T10:50:52.688Z,15.85
2022-10-16T10:53:39.966Z,17.20
2022-10-16T10:56:25.549Z,13.52
2022-10-16T10:59:30.656Z,14.55
2022-10-16T11:02:13.129Z,16.48
2022-10-16T11:05:00.384Z,16.30
2022-10-16T11:07:39.020Z,11.75
2022-10-16T11:10:21.337Z,12.02
2022-10-16T11:12:59.496Z,21.23
2022-10-16T11:15:37.868Z,20.67
2022-10-16T11:18:19.303Z,16.52
2022-10-16T11:20:56.953Z,15.38
2022-10-16T11:23:34.427Z,15.02
2022-10-16T11:26:16.643Z,16.45
2022-10-16T11:28:53.011Z,17.27
2022-10-16T11:31:34.868Z,17.10
2022-10-16T11:34:18.495Z,19.88
2022-10-16T11:36:57.984Z,25.42
2022-10-16T11:39:32.709Z,19.50
2022-10-16T11:42:13.193Z,23.90
2022-10-16T11:44:55.916Z,17.67
2022-10-16T11:50:35.436Z,20.77
2022-10-16T11:53:17.922Z,12.50
2022-10-16T11:55:53.050Z,12.32
2022-10-16T11:58:35.461Z,12.80
2022-10-16T12:01:20.948Z,13.80
2022-10-16T12:04:06.353Z,10.90
2022-10-16T12:06:45.751Z,15.13
2022-10-16T12:09:29.797Z,21.90
2022-10-16T12:12:04.106Z,13.27
2022-10-16T12:17:40.869Z,13.27
2022-10-16T12:20:28.335Z,14.23
2022-10-16T12:23:04.868Z,13.65
2022-10-16T12:25:47.609Z,19.95
2022-10-16T12:28:24.740Z,14.27
2022-10-16T12:31:03.443Z,18.77
2022-10-16T12:33:39.537Z,71.68
2022-10-16T12:36:20.068Z,66.72
2022-10-16T12:38:56.025Z,72.80
2022-10-16T12:41:31.817Z,62.38
2022-10-16T12:44:05.890Z,49.47
2022-10-16T12:46:42.709Z,56.88
2022-10-16T12:49:38.403Z,45.95
2022-10-16T12:52:28.875Z,37.28
2022-10-16T12:55:03.582Z,37.95
2022-10-16T12:57:54.137Z,34.15
2022-10-16T13:00:34.356Z,20.60
2022-10-16T13:03:41.129Z,27.45
2022-10-16T13:06:26.584Z,20.85
2022-10-16T13:09:20.259Z,26.08
2022-10-16T13:12:27.439Z,20.30
2022-10-16T13:15:25.001Z,19.50
2022-10-16T13:18:08.415Z,21.35
2022-10-16T13:20:58.830Z,19.70
2022-10-16T13:23:40.923Z,19.05
2022-10-16T13:26:24.623Z,17.77
2022-10-16T13:29:02.612Z,17.00
2022-10-16T13:31:40.204Z,11.18
2022-10-16T13:34:19.466Z,12.05
2022-10-16T13:36:55.785Z,9.70
2022-10-16T13:39:31.337Z,13.93
2022-10-16T13:42:09.380Z,12.30
2022-10-16T13:44:46.059Z,12.90
2022-10-16T13:47:21.161Z,10.73
2022-10-16T13:50:03.038Z,15.48
2022-10-16T13:52:39.205Z,10.93
2022-10-16T13:55:14.721Z,10.68
2022-10-16T13:57:48.752Z,8.40
2022-10-16T14:00:25.618Z,12.38
2022-10-16T14:03:04.583Z,11.73
2022-10-16T14:05:38.690Z,8.40
2022-10-16T14:08:15.122Z,12.93
2022-10-16T14:10:51.871Z,14.38
2022-10-16T14:13:36.109Z,10.70
2022-10-16T14:16:12.808Z,13.32
2022-10-16T14:21:33.233Z,10.57
2022-10-16T14:24:15.361Z,14.13
2022-10-16T14:26:51.180Z,12.60
2022-10-16T14:29:29.145Z,18.90
2022-10-16T14:32:07.339Z,17.15
2022-10-16T14:34:41.828Z,17.30
2022-10-16T14:37:28.159Z,10.30
2022-10-16T14:40:05.237Z,15.95
2022-10-16T14:42:39.283Z,11.38
2022-10-16T14:45:13.587Z,14.85
2022-10-16T14:47:52.379Z,11.77
2022-10-16T14:50:26.843Z,13.05
2022-10-16T14:53:01.439Z,13.50
2022-10-16T14:55:39.510Z,10.73
2022-10-16T14:58:18.098Z,14.95
2022-10-16T15:00:52.180Z,12.75
2022-10-16T15:03:26.557Z,11.15
2022-10-16T15:06:00.731Z,9.93
2022-10-16T15:08:34.835Z,12.48
2022-10-16T15:11:16.229Z,10.85
2022-10-16T15:13:50.376Z,16.48
2022-10-16T15:16:26.289Z,10.98
2022-10-16T15:19:00.282Z,12.02
2022-10-16T15:21:35.649Z,10.32
2022-10-16T15:24:16.691Z,11.68
2022-10-16T15:26:54.753Z,13.75
2022-10-16T15:29:28.956Z,14.30
2022-10-16T15:32:03.231Z,11.38
2022-10-16T15:34:37.133Z,10.02
2022-10-16T15:37:13.101Z,13.43
2022-10-16T15:39:47.142Z,12.82
2022-10-16T15:42:22.745Z,14.82
2022-10-16T15:44:56.668Z,22.10
2022-10-16T15:47:30.739Z,31.42
2022-10-16T15:50:05.755Z,19.63
2022-10-16T15:52:40.371Z,16.98
2022-10-16T15:55:16.499Z,17.77
2022-10-16T15:57:51.956Z,18.42
2022-10-16T16:00:26.938Z,20.20
2022-10-16T16:03:01.045Z,24.15
2022-10-16T16:05:36.458Z,20.73
2022-10-16T16:08:10.460Z,21.73
2022-10-16T16:10:44.896Z,25.63
2022-10-16T16:13:20.407Z,21.75
2022-10-16T16:15:57.628Z,18.52
2022-10-16T16:18:31.666Z,15.85
2022-10-16T16:21:06.352Z,18.23
2022-10-16T16:23:40.484Z,18.05
2022-10-16T16:26:16.022Z,18.05
2022-10-16T16:28:51.439Z,21.25
2022-10-16T16:31:27.761Z,24.88
2022-10-16T16:34:02.001Z,21.13
2022-10-16T16:36:36.977Z,19.20
2022-10-16T16:39:11.774Z,15.18
2022-10-16T16:41:46.711Z,17.90
2022-10-16T16:44:22.321Z,17.70
2022-10-16T16:46:56.417Z,19.63
2022-10-16T16:49:30.310Z,16.38
2022-10-16T16:52:04.161Z,18.17
2022-10-16T16:54:38.001Z,18.45
2022-10-16T16:57:12.360Z,19.42
2022-10-16T16:59:47.796Z,18.48
2022-10-16T17:02:21.981Z,17.58
2022-10-16T17:04:57.898Z,24.10
2022-10-16T17:07:35.659Z,21.67
2022-10-16T17:10:10.363Z,21.05
2022-10-16T17:12:44.296Z,24.13
2022-10-16T17:15:19.707Z,21.10
2022-10-16T17:17:53.643Z,25.27
2022-10-16T17:20:27.564Z,27.15
2022-10-16T17:23:01.448Z,28.55
2022-10-16T17:25:37.975Z,27.23
2022-10-16T17:28:13.130Z,22.63
2022-10-16T17:30:48.516Z,25.50
2022-10-16T17:33:22.485Z,22.85
2022-10-16T17:35:57.058Z,34.83
2022-10-16T17:38:31.197Z,28.35
2022-10-16T17:41:13.792Z,27.35
2022-10-16T17:43:49.035Z,30.38
2022-10-16T17:46:26.108Z,24.55
2022-10-16T17:49:01.246Z,26.23
2022-10-16T17:51:35.612Z,34.10
2022-10-16T17:54:10.842Z,36.38
2022-10-16T17:56:45.153Z,25.52
2022-10-16T17:59:23.252Z,34.70
2022-10-16T18:01:59.970Z,55.20
2022-10-16T18:04:34.364Z,38.38
2022-10-16T18:07:08.447Z,42.08
2022-10-16T18:10:09.857Z,35.20
2022-10-16T18:12:39.620Z,28.48
2022-10-16T18:15:14.029Z,22.90
2022-10-16T18:17:49.354Z,32.22
2022-10-16T18:20:23.515Z,24.33
2022-10-16T18:22:57.835Z,25.30
2022-10-16T18:25:32.268Z,24.50
2022-10-16T18:28:06.934Z,25.23
2022-10-16T18:30:41.162Z,22.98
2022-10-16T18:33:16.701Z,21.27
2022-10-16T18:35:51.321Z,23.92
2022-10-16T18:38:25.767Z,22.80
2022-10-16T18:41:02.051Z,18.88
2022-10-16T18:43:36.387Z,25.92
2022-10-16T18:46:13.237Z,23.23
2022-10-16T18:48:52.336Z,32.63
2022-10-16T18:51:30.406Z,23.58
2022-10-16T18:54:06.192Z,26.58
2022-10-16T18:56:40.779Z,21.25
2022-10-16T18:59:15.165Z,19.33
2022-10-16T19:01:51.278Z,19.40
2022-10-16T19:04:26.869Z,22.65
2022-10-16T19:07:01.221Z,32.22
2022-10-16T19:09:35.268Z,24.90
2022-10-16T19:12:10.288Z,20.48
2022-10-16T19:14:44.377Z,23.63
2022-10-16T19:17:18.730Z,23.05
2022-10-16T19:19:56.429Z,25.58
2022-10-16T19:22:51.495Z,21.45
2022-10-16T19:25:28.154Z,15.05
2022-10-16T19:28:07.501Z,22.02
2022-10-16T19:30:42.769Z,23.08
2022-10-16T19:33:16.680Z,22.80
2022-10-16T19:35:51.981Z,23.23
2022-10-16T19:38:25.929Z,21.70
2022-10-16T19:41:07.050Z,19.98
2022-10-16T19:43:41.199Z,21.23
2022-10-16T19:46:17.350Z,19.30
2022-10-16T19:48:54.804Z,17.58
2022-10-16T19:51:31.054Z,14.70
2022-10-16T19:54:08.119Z,20.42
2022-10-16T19:56:42.984Z,16.10
2022-10-16T19:59:19.394Z,18.55
2022-10-16T20:01:53.742Z,18.98
2022-10-16T20:04:27.855Z,19.55
2022-10-16T20:07:03.349Z,15.32
2022-10-16T20:09:37.431Z,18.80
2022-10-16T20:12:11.578Z,17.98
2022-10-16T20:14:45.893Z,24.50
2022-10-16T20:17:20.015Z,20.90
2022-10-16T20:19:54.056Z,22.45
2022-10-16T20:22:29.567Z,20.50
2022-10-16T20:25:07.102Z,20.52
2022-10-16T20:27:44.230Z,26.75
2022-10-16T20:30:18.532Z,22.33
2022-10-16T20:32:52.897Z,18.58
2022-10-16T20:35:29.584Z,20.90
2022-10-16T20:38:05.033Z,23.30
2022-10-16T20:40:40.680Z,20.38
2022-10-16T20:43:16.136Z,21.10
2022-10-16T20:46:01.159Z,17.10
2022-10-16T20:48:35.048Z,22.05
2022-10-16T20:51:17.324Z,24.20
2022-10-16T20:53:56.159Z,20.75
2022-10-16T20:56:32.634Z,19.13
2022-10-16T20:59:07.071Z,20.10
2022-10-16T21:01:41.496Z,20.70
2022-10-16T21:04:15.413Z,18.63
2022-10-16T21:06:49.675Z,22.23
2022-10-16T21:09:25.446Z,22.95
2022-10-16T21:11:59.433Z,18.15
2022-10-16T21:14:36.927Z,17.58
2022-10-16T21:17:13.452Z,16.90
2022-10-16T21:19:47.679Z,17.83
2022-10-16T21:22:24.620Z,20.63
2022-10-16T21:25:00.275Z,18.30
2022-10-16T21:27:38.866Z,22.92
2022-10-16T21:30:13.180Z,19.80
2022-10-16T21:32:47.245Z,19.10
2022-10-16T21:35:21.184Z,17.95
2022-10-16T21:37:55.268Z,18.75
2022-10-16T21:40:32.379Z,21.85
2022-10-16T21:43:06.347Z,18.50
2022-10-16T21:45:40.329Z,19.50
2022-10-16T21:48:14.705Z,19.02
2022-10-16T21:50:49.708Z,17.98
2022-10-16T21:53:23.608Z,20.80
2022-10-16T21:55:58.985Z,21.80
2022-10-16T21:58:33.973Z,20.05
2022-10-16T22:01:09.016Z,16.80
2022-10-16T22:03:43.319Z,16.70
2022-10-16T22:06:19.680Z,17.05
2022-10-16T22:08:55.339Z,20.02
2022-10-16T22:11:37.069Z,18.58
2022-10-16T22:14:13.805Z,16.55
2022-10-16T22:16:48.684Z,16.08
2022-10-16T22:19:23.902Z,18.38
2022-10-16T22:22:00.776Z,18.45
2022-10-16T22:24:35.096Z,17.08
2022-10-16T22:27:10.794Z,16.42
2022-10-16T22:29:44.723Z,20.27
2022-10-16T22:32:18.739Z,17.02
2022-10-16T22:34:52.770Z,16.75
2022-10-16T22:37:26.939Z,18.42
2022-10-16T22:40:01.310Z,16.77
2022-10-16T22:42:36.826Z,16.95
2022-10-16T22:45:11.661Z,17.73
2022-10-16T22:47:45.574Z,27.17
2022-10-16T22:50:19.894Z,21.80
2022-10-16T22:52:54.186Z,20.63
2022-10-16T22:55:28.172Z,16.58
2022-10-16T22:58:03.557Z,18.00
2022-10-16T23:00:37.644Z,15.40
2022-10-16T23:03:11.773Z,17.50
2022-10-16T23:05:48.035Z,16.05
2022-10-16T23:08:22.094Z,19.60
2022-10-16T23:11:01.040Z,17.10
2022-10-16T23:13:38.072Z,16.60
2022-10-16T23:16:13.463Z,15.82
2022-10-16T23:18:48.122Z,16.25
2022-10-16T23:21:24.577Z,15.07
2022-10-16T23:23:58.526Z,15.75
2022-10-16T23:26:32.504Z,15.88
2022-10-16T23:29:08.029Z,15.30
2022-10-16T23:31:42.003Z,16.10
2022-10-16T23:34:15.856Z,17.23
2022-10-16T23:36:49.906Z,17.33
2022-10-16T23:39:23.914Z,20.13
2022-10-16T23:42:01.112Z,18.02
2022-10-16T23:44:36.549Z,14.15
2022-10-16T23:47:10.480Z,18.60
2022-10-16T23:49:44.348Z,16.95
2022-10-16T23:52:18.260Z,17.33
2022-10-16T23:54:52.167Z,16.92
2022-10-16T23:57:26.355Z,18.65
